Time;durP1;ratioP1;P1;durP2;ratioP2;P2;SDS_P1;SDS_P2;PMS_P1;PMS_P2;Temp;Humidity;BMP_temperature;BMP_pressure;BME280_temperature;BME280_humidity;BME280_pressure;Samples;Min_cycle;Max_cycle;Signal;HPM_P1;HPM_P2
2022/08/11 00:02:16;;;;;;;3.75;1.50;;;;;;;;;;5138923;27;20027;-80
2022/08/11 00:04:42;;;;;;;3.50;1.70;;;;;;;;;;5138717;27;20026;-80
2022/08/11 00:07:09;;;;;;;4.15;1.48;;;;;;;;;;5138569;27;20020;-81
2022/08/11 00:09:36;;;;;;;3.95;1.90;;;;;;;;;;5120468;27;20321;-80
2022/08/11 00:12:03;;;;;;;4.93;1.65;;;;;;;;;;5138831;27;20025;-80
2022/08/11 00:14:30;;;;;;;5.45;1.60;;;;;;;;;;5138854;27;20027;-81
2022/08/11 00:17:04;;;;;;;3.65;1.88;;;;;;;;;;5138820;27;20026;-80
2022/08/11 00:19:33;;;;;;;8.27;1.50;;;;;;;;;;5138684;27;20023;-80
2022/08/11 00:21:59;;;;;;;4.65;1.88;;;;;;;;;;5138256;27;20110;-80
2022/08/11 00:24:32;;;;;;;3.67;1.55;;;;;;;;;;5138633;27;20023;-80
2022/08/11 00:26:58;;;;;;;5.18;1.73;;;;;;;;;;5138102;27;20411;-81
2022/08/11 00:29:24;;;;;;;3.25;1.65;;;;;;;;;;5120199;27;20112;-81
2022/08/11 00:31:51;;;;;;;3.55;1.55;;;;;;;;;;5138396;27;20344;-80
2022/08/11 00:34:28;;;;;;;4.43;1.80;;;;;;;;;;5138340;27;20030;-81
2022/08/11 00:37:01;;;;;;;5.15;1.60;;;;;;;;;;5138120;27;20118;-80
2022/08/11 00:39:28;;;;;;;3.35;1.63;;;;;;;;;;5138263;27;20105;-80
2022/08/11 00:42:16;;;;;;;2.42;1.63;;;;;;;;;;5138272;27;20022;-80
2022/08/11 00:44:48;;;;;;;4.78;1.48;;;;;;;;;;5138162;27;20026;-80
2022/08/11 00:47:35;;;;;;;4.03;1.85;;;;;;;;;;5138068;27;20023;-80
2022/08/11 00:50:21;;;;;;;4.80;1.50;;;;;;;;;;5138006;27;20015;-80
2022/08/11 00:52:47;;;;;;;4.43;1.38;;;;;;;;;;5137970;28;20400;-80
2022/08/11 00:55:32;;;;;;;3.10;1.70;;;;;;;;;;5138035;27;20023;-80
2022/08/11 00:58:17;;;;;;;7.13;1.63;;;;;;;;;;5137820;27;20047;-80
2022/08/11 01:00:46;;;;;;;3.03;1.65;;;;;;;;;;5137908;27;20461;-80
2022/08/11 01:03:16;;;;;;;4.93;2.00;;;;;;;;;;5138661;27;20350;-80
2022/08/11 01:06:02;;;;;;;3.72;1.60;;;;;;;;;;5142044;27;20023;-80
2022/08/11 01:08:46;;;;;;;5.88;1.83;;;;;;;;;;5123549;27;20031;-80
2022/08/11 01:11:15;;;;;;;2.10;1.48;;;;;;;;;;5142138;27;20030;-80
2022/08/11 01:14:00;;;;;;;1.98;1.77;;;;;;;;;;5142382;27;20015;-80
2022/08/11 01:16:38;;;;;;;2.85;1.63;;;;;;;;;;5141975;27;20338;-80
2022/08/11 01:19:13;;;;;;;5.82;1.52;;;;;;;;;;5141887;27;20027;-81
2022/08/11 01:21:55;;;;;;;6.35;1.48;;;;;;;;;;5141804;27;20427;-80
2022/08/11 01:24:36;;;;;;;4.45;1.50;;;;;;;;;;5123796;27;20019;-81
2022/08/11 01:27:21;;;;;;;3.60;1.70;;;;;;;;;;5142009;27;20050;-81
2022/08/11 01:30:08;;;;;;;2.03;1.58;;;;;;;;;;5141794;27;20015;-81
2022/08/11 01:32:34;;;;;;;2.65;1.58;;;;;;;;;;5141815;27;20098;-80
2022/08/11 01:35:00;;;;;;;2.42;1.67;;;;;;;;;;5141661;27;20451;-81
2022/08/11 01:37:35;;;;;;;5.22;1.70;;;;;;;;;;5141581;27;20023;-80
2022/08/11 01:40:10;;;;;;;3.55;1.50;;;;;;;;;;5141837;27;20015;-81
2022/08/11 01:45:48;;;;;;;2.60;1.70;;;;;;;;;;5141598;27;20435;-81
2022/08/11 01:48:33;;;;;;;4.50;1.50;;;;;;;;;;5141486;27;20023;-81
2022/08/11 01:50:59;;;;;;;3.17;1.50;;;;;;;;;;5141328;27;20294;-81
2022/08/11 01:53:25;;;;;;;1.63;1.52;;;;;;;;;;5141320;27;20104;-81
2022/08/11 01:56:10;;;;;;;5.25;1.83;;;;;;;;;;5141109;27;20015;-81
2022/08/11 01:58:45;;;;;;;3.90;1.65;;;;;;;;;;5141180;27;20051;-81
2022/08/11 02:01:30;;;;;;;4.25;2.00;;;;;;;;;;5141137;27;20409;-81
2022/08/11 02:04:22;;;;;;;5.03;1.50;;;;;;;;;;5122450;27;20066;-81
2022/08/11 02:06:54;;;;;;;;;;;;;;;;;;5129853;27;20035;-81
2022/08/11 02:09:20;;;;;;;2.22;1.40;;;;;;;;;;5141187;27;19907;-81
2022/08/11 02:11:48;;;;;;;5.57;1.73;;;;;;;;;;5141000;27;20069;-81
2022/08/11 02:14:26;;;;;;;5.07;1.77;;;;;;;;;;5141029;27;20027;-81
2022/08/11 02:17:02;;;;;;;2.53;1.60;;;;;;;;;;5140835;27;20050;-80
2022/08/11 02:25:40;;;;;;;1.45;1.35;;;;;;;;;;5140738;27;20045;-80
2022/08/11 02:28:19;;;;;;;3.45;1.67;;;;;;;;;;5140437;27;20313;-80
2022/08/11 02:33:21;;;;;;;2.60;1.55;;;;;;;;;;5140556;27;20321;-80
2022/08/11 02:33:43;;;;;;;5.85;1.80;;;;;;;;;;5140523;27;20046;-80
2022/08/11 02:36:20;;;;;;;4.55;1.73;;;;;;;;;;5122216;27;20428;-80
2022/08/11 02:38:49;;;;;;;3.45;1.92;;;;;;;;;;5140638;27;20298;-80
2022/08/11 02:44:14;;;;;;;4.55;2.00;;;;;;;;;;5140726;27;20042;-80
2022/08/11 02:46:59;;;;;;;4.60;1.70;;;;;;;;;;5140269;27;20046;-80
2022/08/11 02:49:52;;;;;;;5.10;1.52;;;;;;;;;;5121607;27;20046;-80
2022/08/11 02:52:25;;;;;;;1.52;1.42;;;;;;;;;;5121994;27;20083;-80
2022/08/11 02:55:00;;;;;;;7.88;2.03;;;;;;;;;;5140322;27;20030;-80
2022/08/11 02:57:41;;;;;;;4.25;1.70;;;;;;;;;;5121657;27;20084;-80
2022/08/11 03:00:11;;;;;;;2.92;1.65;;;;;;;;;;5140260;27;20039;-80
2022/08/11 03:02:44;;;;;;;3.47;1.80;;;;;;;;;;5140100;27;20023;-81
2022/08/11 03:08:17;;;;;;;3.72;1.80;;;;;;;;;;5139935;27;20104;-80
2022/08/11 03:16:45;;;;;;;6.15;2.05;;;;;;;;;;5140031;27;20026;-80
2022/08/11 03:19:23;;;;;;;3.47;1.92;;;;;;;;;;5139723;27;20023;-80
2022/08/11 03:22:12;;;;;;;5.65;2.03;;;;;;;;;;5121386;27;20050;-80
2022/08/11 03:24:43;;;;;;;4.55;2.20;;;;;;;;;;5036535;28;20033;-81
2022/08/11 03:27:27;;;;;;;5.50;2.05;;;;;;;;;;5035433;28;20052;-80
2022/08/11 03:29:54;;;;;;;4.65;1.70;;;;;;;;;;5036424;28;20116;-80
2022/08/11 03:32:30;;;;;;;4.68;2.22;;;;;;;;;;5036515;28;20026;-80
2022/08/11 03:35:00;;;;;;;2.50;1.80;;;;;;;;;;5036243;28;20427;-80
2022/08/11 03:43:34;;;;;;;3.08;2.00;;;;;;;;;;4996838;28;20037;-81
2022/08/11 03:46:16;;;;;;;5.85;2.30;;;;;;;;;;4980586;28;20026;-81
2022/08/11 03:48:59;;;;;;;4.90;2.08;;;;;;;;;;4996683;28;20034;-80
2022/08/11 03:51:30;;;;;;;5.95;2.00;;;;;;;;;;4996642;28;20050;-81
2022/08/11 03:53:56;;;;;;;;;;;;;;;;;;4997008;28;20030;-81
2022/08/11 03:56:41;;;;;;;5.57;2.13;;;;;;;;;;4979721;28;19924;-80
2022/08/11 03:59:07;;;;;;;8.35;1.90;;;;;;;;;;4996521;28;20053;-81
2022/08/11 04:01:52;;;;;;;6.00;2.05;;;;;;;;;;5024919;28;20037;-81
2022/08/11 04:04:50;;;;;;;7.05;2.17;;;;;;;;;;5055754;28;20135;-80
2022/08/11 04:07:16;;;;;;;4.28;1.80;;;;;;;;;;4976695;28;20042;-80
2022/08/11 04:09:45;;;;;;;7.03;2.22;;;;;;;;;;4976971;28;20022;-80
2022/08/11 04:12:18;;;;;;;2.75;1.73;;;;;;;;;;4976976;28;20027;-80
2022/08/11 04:17:52;;;;;;;5.20;2.10;;;;;;;;;;4976956;28;20034;-80
2022/08/11 04:20:29;;;;;;;6.35;1.90;;;;;;;;;;4968776;28;20039;-80
2022/08/11 04:23:10;;;;;;;6.28;2.28;;;;;;;;;;4996273;28;20042;-79
2022/08/11 04:25:49;;;;;;;5.32;2.30;;;;;;;;;;4996179;28;20038;-79
2022/08/11 04:28:15;;;;;;;6.20;2.03;;;;;;;;;;4995978;28;20073;-80
2022/08/11 04:30:56;;;;;;;4.50;2.13;;;;;;;;;;4996064;28;20038;-80
2022/08/11 04:33:54;;;;;;;3.60;1.87;;;;;;;;;;4979688;28;20129;-80
2022/08/11 04:37:30;;;;;;;4.85;2.08;;;;;;;;;;4922055;29;20032;-80
2022/08/11 04:39:25;;;;;;;6.10;2.53;;;;;;;;;;4937786;29;20458;-80
2022/08/11 04:45:01;;;;;;;5.53;2.30;;;;;;;;;;4957070;29;20035;-80
2022/08/11 05:02:05;;;;;;;4.40;2.00;;;;;;;;;;5015240;28;20473;-79
2022/08/11 05:07:31;;;;;;;7.47;2.42;;;;;;;;;;5015055;28;20463;-80
2022/08/11 05:09:57;;;;;;;6.25;2.08;;;;;;;;;;5015210;28;20038;-80
2022/08/11 05:12:25;;;;;;;6.20;2.25;;;;;;;;;;5042614;28;20041;-80
2022/08/11 05:37:10;;;;;;;2.15;1.85;;;;;;;;;;5117036;28;20031;-82
2022/08/11 06:03:20;;;;;;;3.65;2.00;;;;;;;;;;5115020;27;20422;-80
2022/08/11 06:05:46;;;;;;;4.78;1.80;;;;;;;;;;5114513;28;20432;-79
2022/08/11 06:08:13;;;;;;;5.80;2.10;;;;;;;;;;5114516;28;20097;-80
2022/08/11 06:10:41;;;;;;;3.13;1.70;;;;;;;;;;5114550;28;20024;-80
2022/08/11 06:13:08;;;;;;;3.50;1.75;;;;;;;;;;5113667;28;20114;-79
2022/08/11 06:15:43;;;;;;;4.65;2.70;;;;;;;;;;5114885;28;20039;-79
2022/08/11 06:18:10;;;;;;;2.65;1.90;;;;;;;;;;5114529;28;20016;-79
2022/08/11 06:20:45;;;;;;;5.35;2.40;;;;;;;;;;5114493;28;20103;-79
2022/08/11 06:23:13;;;;;;;3.90;2.15;;;;;;;;;;5114524;28;20044;-79
2022/08/11 06:25:40;;;;;;;5.22;2.53;;;;;;;;;;5114437;28;20107;-80
2022/08/11 06:28:07;;;;;;;3.25;2.10;;;;;;;;;;5114481;28;20049;-79
2022/08/11 06:30:41;;;;;;;4.03;2.10;;;;;;;;;;5114414;28;20053;-79
2022/08/11 06:33:12;;;;;;;5.20;2.30;;;;;;;;;;5114698;28;20034;-79
2022/08/11 06:35:44;;;;;;;2.33;2.00;;;;;;;;;;5114429;28;20059;-79
2022/08/11 06:38:37;;;;;;;4.50;2.20;;;;;;;;;;5114266;28;20116;-79
2022/08/11 06:44:04;;;;;;;3.42;1.90;;;;;;;;;;5114314;28;20432;-80
2022/08/11 06:46:38;;;;;;;2.47;2.08;;;;;;;;;;5113075;28;20099;-79
2022/08/11 06:52:00;;;;;;;3.65;1.90;;;;;;;;;;5113963;28;20119;-79
2022/08/11 06:54:26;;;;;;;4.22;2.00;;;;;;;;;;5114137;28;20080;-79
2022/08/11 07:02:32;;;;;;;7.68;2.00;;;;;;;;;;5109828;28;20121;-79
2022/08/11 07:05:16;;;;;;;4.93;1.88;;;;;;;;;;5100015;28;20031;-80
2022/08/11 07:16:26;;;;;;;3.92;2.00;;;;;;;;;;5100176;28;20034;-80
2022/08/11 07:30:10;;;;;;;4.30;2.22;;;;;;;;;;5099896;28;20047;-80
2022/08/11 07:32:49;;;;;;;3.83;1.80;;;;;;;;;;5099828;28;20036;-80
2022/08/11 07:35:17;;;;;;;5.55;1.80;;;;;;;;;;5099528;28;20111;-80
2022/08/11 07:37:46;;;;;;;4.57;2.05;;;;;;;;;;5098350;28;20419;-79
2022/08/11 07:40:12;;;;;;;4.22;2.33;;;;;;;;;;5098652;28;20393;-80
2022/08/11 07:42:40;;;;;;;9.32;2.60;;;;;;;;;;5098688;28;20032;-79
2022/08/11 07:53:28;;;;;;;4.30;2.03;;;;;;;;;;5099443;28;20073;-79
2022/08/11 07:55:58;;;;;;;4.55;1.95;;;;;;;;;;5098934;28;20062;-80
2022/08/11 08:17:51;;;;;;;4.10;2.00;;;;;;;;;;5098939;28;20177;-79
2022/08/11 08:20:21;;;;;;;4.72;2.00;;;;;;;;;;5098600;28;20322;-79
2022/08/11 08:22:55;;;;;;;3.67;1.90;;;;;;;;;;5098570;28;20326;-79
2022/08/11 08:25:21;;;;;;;4.70;2.03;;;;;;;;;;5098580;28;20405;-79
2022/08/11 08:27:49;;;;;;;3.65;1.98;;;;;;;;;;5098749;28;20028;-79
2022/08/11 08:33:00;;;;;;;4.30;2.15;;;;;;;;;;5098651;28;20059;-79
2022/08/11 08:35:29;;;;;;;5.65;2.30;;;;;;;;;;5098367;28;20406;-79
2022/08/11 08:37:55;;;;;;;4.53;2.72;;;;;;;;;;5097024;28;20463;-79
2022/08/11 08:40:21;;;;;;;7.40;2.25;;;;;;;;;;5098286;28;20424;-79
2022/08/11 08:42:58;;;;;;;9.32;2.53;;;;;;;;;;5098205;28;20392;-79
2022/08/11 08:45:26;;;;;;;5.68;2.88;;;;;;;;;;5097306;28;20338;-79
2022/08/11 08:47:52;;;;;;;7.72;3.40;;;;;;;;;;5098217;28;20028;-79
2022/08/11 08:50:21;;;;;;;10.23;2.70;;;;;;;;;;5098099;28;20466;-79
2022/08/11 08:52:52;;;;;;;4.43;2.22;;;;;;;;;;5097942;28;20028;-79
2022/08/11 08:55:19;;;;;;;3.45;1.80;;;;;;;;;;5097928;28;20414;-79
2022/08/11 08:57:45;;;;;;;3.88;2.00;;;;;;;;;;5096899;28;20321;-79
2022/08/11 09:00:14;;;;;;;6.85;2.20;;;;;;;;;;5097691;28;20047;-79
2022/08/11 09:02:41;;;;;;;6.50;2.20;;;;;;;;;;5097673;28;20059;-79
2022/08/11 09:05:08;;;;;;;8.18;2.53;;;;;;;;;;5097913;28;20028;-79
2022/08/11 09:07:35;;;;;;;9.02;2.40;;;;;;;;;;5097703;28;20038;-79
2022/08/11 09:10:01;;;;;;;5.70;1.90;;;;;;;;;;5097712;28;20107;-79
2022/08/11 09:12:29;;;;;;;4.72;2.13;;;;;;;;;;5097607;28;20024;-79
2022/08/11 09:15:03;;;;;;;5.82;2.10;;;;;;;;;;5097514;28;20020;-79
2022/08/11 09:17:31;;;;;;;8.98;3.13;;;;;;;;;;5097782;28;20318;-79
2022/08/11 09:20:03;;;;;;;6.55;2.33;;;;;;;;;;5097618;28;20016;-78
2022/08/11 09:28:09;;;;;;;6.20;2.38;;;;;;;;;;5097509;28;20070;-79
2022/08/11 09:30:35;;;;;;;5.15;2.35;;;;;;;;;;5096703;28;20329;-78
2022/08/11 09:33:04;;;;;;;9.00;2.90;;;;;;;;;;5096372;28;20031;-78
2022/08/11 09:35:32;;;;;;;7.45;2.33;;;;;;;;;;5097367;28;20066;-79
2022/08/11 09:40:45;;;;;;;7.30;2.55;;;;;;;;;;5097381;28;20067;-79
2022/08/11 09:46:01;;;;;;;7.78;2.15;;;;;;;;;;5075329;28;20456;-79
2022/08/11 09:48:30;;;;;;;8.27;2.65;;;;;;;;;;5075402;28;20028;-79
2022/08/11 09:50:59;;;;;;;4.95;1.92;;;;;;;;;;5058333;28;20064;-79
2022/08/11 09:53:27;;;;;;;7.28;1.90;;;;;;;;;;5075143;28;20023;-79
2022/08/11 09:55:53;;;;;;;4.43;1.67;;;;;;;;;;5075075;28;20053;-79
2022/08/11 09:58:21;;;;;;;3.47;2.10;;;;;;;;;;5075343;28;20448;-79
2022/08/11 10:00:48;;;;;;;6.45;2.00;;;;;;;;;;5074563;28;20044;-79
2022/08/11 10:03:24;;;;;;;3.22;1.70;;;;;;;;;;5075100;28;20036;-80
2022/08/11 10:08:38;;;;;;;7.32;2.10;;;;;;;;;;5075312;28;20066;-79
2022/08/11 10:11:06;;;;;;;7.95;1.92;;;;;;;;;;5074872;28;20059;-79
2022/08/11 10:15:32;;;;;;;4.95;2.00;;;;;;;;;;5075003;28;20029;-79
2022/08/11 10:16:21;;;;;;;3.80;1.50;;;;;;;;;;5074783;28;20129;-79
2022/08/11 10:18:51;;;;;;;4.78;1.80;;;;;;;;;;5058003;28;20021;-79
2022/08/11 10:21:28;;;;;;;2.35;1.50;;;;;;;;;;5074745;28;20341;-79
2022/08/11 10:26:53;;;;;;;7.60;1.70;;;;;;;;;;5097025;28;20034;-79
2022/08/11 10:34:50;;;;;;;4.20;1.33;;;;;;;;;;5097053;28;20043;-79
2022/08/11 10:37:17;;;;;;;4.25;1.42;;;;;;;;;;5096717;28;20027;-79
2022/08/11 10:39:44;;;;;;;2.25;0.90;;;;;;;;;;5100521;28;20462;-79
2022/08/11 10:44:56;;;;;;;5.18;1.00;;;;;;;;;;5100775;28;20427;-79
2022/08/11 10:47:38;;;;;;;4.07;1.20;;;;;;;;;;5100377;28;20085;-79
2022/08/11 10:58:49;;;;;;;6.00;1.63;;;;;;;;;;5100340;28;20055;-79
2022/08/11 11:01:26;;;;;;;2.42;0.90;;;;;;;;;;5099947;28;20417;-79
2022/08/11 11:03:54;;;;;;;9.07;1.42;;;;;;;;;;5100192;28;20035;-79
2022/08/11 11:06:24;;;;;;;3.35;1.50;;;;;;;;;;5099971;28;20421;-79
2022/08/11 11:08:51;;;;;;;7.40;1.35;;;;;;;;;;5100297;28;20149;-79
2022/08/11 11:11:18;;;;;;;3.92;0.93;;;;;;;;;;5099947;28;20055;-79
2022/08/11 11:19:19;;;;;;;4.28;1.05;;;;;;;;;;5099932;28;20035;-78
2022/08/11 11:21:49;;;;;;;2.63;1.58;;;;;;;;;;5099553;28;20153;-78
2022/08/11 11:24:15;;;;;;;4.70;1.52;;;;;;;;;;5098664;28;20028;-78
2022/08/11 11:26:58;;;;;;;4.28;1.10;;;;;;;;;;5099685;28;20314;-78
2022/08/11 11:29:48;;;;;;;1.15;1.02;;;;;;;;;;5099323;28;20035;-76
2022/08/11 11:32:27;;;;;;;9.88;1.20;;;;;;;;;;5098825;28;20048;-77
2022/08/11 11:35:11;;;;;;;1.80;1.30;;;;;;;;;;5099622;28;20020;-77
2022/08/11 11:37:39;;;;;;;1.02;0.82;;;;;;;;;;5099450;28;20117;-77
2022/08/11 11:40:09;;;;;;;3.65;1.48;;;;;;;;;;5099499;28;20039;-77
2022/08/11 11:42:36;;;;;;;2.67;1.20;;;;;;;;;;5098429;28;20056;-77
2022/08/11 11:45:02;;;;;;;2.63;1.05;;;;;;;;;;5099673;28;20061;-77
2022/08/11 11:47:29;;;;;;;2.75;1.25;;;;;;;;;;5099081;28;20028;-77
2022/08/11 11:49:55;;;;;;;2.30;1.10;;;;;;;;;;5098928;28;20115;-77
2022/08/11 11:52:22;;;;;;;3.03;0.95;;;;;;;;;;5098979;28;20036;-77
2022/08/11 11:54:49;;;;;;;2.35;1.02;;;;;;;;;;5098157;28;20027;-77
2022/08/11 12:02:51;;;;;;;3.28;0.85;;;;;;;;;;5098899;28;20059;-77
2022/08/11 12:05:17;;;;;;;3.03;1.02;;;;;;;;;;5099085;28;20028;-77
2022/08/11 12:10:29;;;;;;;5.28;1.20;;;;;;;;;;5099286;28;20148;-77
2022/08/11 12:15:40;;;;;;;1.63;1.00;;;;;;;;;;5099353;28;20028;-80
2022/08/11 12:18:06;;;;;;;2.70;0.90;;;;;;;;;;5097642;28;20114;-78
2022/08/11 12:20:33;;;;;;;0.85;0.70;;;;;;;;;;5098533;28;20020;-78
2022/08/11 12:28:29;;;;;;;5.38;1.85;;;;;;;;;;5098429;28;20035;-77
2022/08/11 12:30:56;;;;;;;6.25;1.30;;;;;;;;;;5098571;28;20378;-76
2022/08/11 12:33:22;;;;;;;9.32;1.50;;;;;;;;;;5098634;28;20028;-77
2022/08/11 12:35:55;;;;;;;2.75;0.90;;;;;;;;;;5097369;28;20095;-78
2022/08/11 12:38:22;;;;;;;3.15;1.10;;;;;;;;;;5086688;28;20058;-77
2022/08/11 12:46:21;;;;;;;10.05;1.55;;;;;;;;;;5079288;28;20367;-76
2022/08/11 12:54:20;;;;;;;3.85;1.65;;;;;;;;;;5078077;28;20031;-77
2022/08/11 17:26:52;;;;;;;11.38;3.78;;;;;;;;;;5135843;27;20626;-80
2022/08/11 17:29:14;;;;;;;7.90;3.00;;;;;;;;;;5135221;28;20031;-80
2022/08/11 17:37:10;;;;;;;9.35;2.00;;;;;;;;;;5135806;28;20477;-80
2022/08/11 17:39:37;;;;;;;6.88;1.88;;;;;;;;;;5135433;28;20024;-80
2022/08/11 17:50:19;;;;;;;26.98;3.50;;;;;;;;;;5134805;28;20069;-82
2022/08/11 18:01:02;;;;;;;15.18;2.17;;;;;;;;;;5135195;28;20039;-80
2022/08/11 18:03:31;;;;;;;13.95;2.55;;;;;;;;;;5135045;28;20015;-81
2022/08/11 18:05:57;;;;;;;11.93;2.40;;;;;;;;;;5134486;28;20031;-80
